地図

経路データ

SID SEASON NUMBER BASIN SUBBASIN NAME ISO_TIME NATURE LAT LON WMO_WIND WMO_PRES WMO_AGENCY TRACK_TYPE DIST2LAND LANDFALL IFLAG USA_AGENCY USA_ATCF_ID USA_LAT USA_LON USA_RECORD USA_STATUS USA_WIND USA_PRES USA_SSHS USA_R34_NE USA_R34_SE USA_R34_SW USA_R34_NW USA_R50_NE USA_R50_SE USA_R50_SW USA_R50_NW USA_R64_NE USA_R64_SE USA_R64_SW USA_R64_NW USA_POCI USA_ROCI USA_RMW USA_EYE TOKYO_LAT TOKYO_LON TOKYO_GRADE TOKYO_WIND TOKYO_PRES TOKYO_R50_DIR TOKYO_R50_LONG TOKYO_R50_SHORT TOKYO_R30_DIR TOKYO_R30_LONG TOKYO_R30_SHORT TOKYO_LAND CMA_LAT CMA_LON CMA_CAT CMA_WIND CMA_PRES HKO_LAT HKO_LON HKO_CAT HKO_WIND HKO_PRES NEWDELHI_LAT NEWDELHI_LON NEWDELHI_GRADE NEWDELHI_WIND NEWDELHI_PRES NEWDELHI_CI NEWDELHI_DP NEWDELHI_POCI REUNION_LAT REUNION_LON REUNION_TYPE REUNION_WIND REUNION_PRES REUNION_TNUM REUNION_CI REUNION_RMW REUNION_R34_NE REUNION_R34_SE REUNION_R34_SW REUNION_R34_NW REUNION_R50_NE REUNION_R50_SE REUNION_R50_SW REUNION_R50_NW REUNION_R64_NE REUNION_R64_SE REUNION_R64_SW REUNION_R64_NW BOM_LAT BOM_LON BOM_TYPE BOM_WIND BOM_PRES BOM_TNUM BOM_CI BOM_RMW BOM_R34_NE BOM_R34_SE BOM_R34_SW BOM_R34_NW BOM_R50_NE BOM_R50_SE BOM_R50_SW BOM_R50_NW BOM_R64_NE BOM_R64_SE BOM_R64_SW BOM_R64_NW BOM_ROCI BOM_POCI BOM_EYE BOM_POS_METHOD BOM_PRES_METHOD NADI_LAT NADI_LON NADI_CAT NADI_WIND NADI_PRES WELLINGTON_LAT WELLINGTON_LON WELLINGTON_WIND WELLINGTON_PRES DS824_LAT DS824_LON DS824_STAGE DS824_WIND DS824_PRES TD9636_LAT TD9636_LON TD9636_STAGE TD9636_WIND TD9636_PRES TD9635_LAT TD9635_LON TD9635_WIND TD9635_PRES TD9635_ROCI NEUMANN_LAT NEUMANN_LON NEUMANN_CLASS NEUMANN_WIND NEUMANN_PRES MLC_LAT MLC_LON MLC_CLASS MLC_WIND MLC_PRES USA_GUST BOM_GUST BOM_GUST_PER REUNION_GUST REUNION_GUST_PER USA_SEAHGT USA_SEARAD_NE USA_SEARAD_SE USA_SEARAD_SW USA_SEARAD_NW STORM_SPEED STORM_DIR
1918078S21048 1918 23 SI MM NOT_NAMED 1918-03-18 18:00:00 NR -21.1000 48.4000 main 10 10 __________O___ -1 -21.1000 48.4000 2 5 144
1918078S21048 1918 23 SI MM NOT_NAMED 1918-03-18 21:00:00 NR -21.2843 48.5378 main 20 20 __________P___ -1 -21.2843 48.5378 2 5 145
1918078S21048 1918 23 SI MM NOT_NAMED 1918-03-19 00:00:00 NR -21.4848 48.6905 main 42 42 __________P___ -1 -21.4848 48.6905 2 5 144
1918078S21048 1918 23 SI MM NOT_NAMED 1918-03-19 03:00:00 NR -21.7180 48.8729 main 70 70 __________P___ -1 -21.7180 48.8729 2 6 144
1918078S21048 1918 23 SI MM NOT_NAMED 1918-03-19 06:00:00 TS -22.0000 49.1000 main 95 95 _________OO___ -1 -22.0000 49.1000 TC 35 -22.0000 49.1000 2 8 144
1918078S21048 1918 23 SI MM NOT_NAMED 1918-03-19 09:00:00 TS -22.3635 49.3833 main 140 140 _________PP___ -1 -22.4101 49.3872 TC 35 -22.3402 49.3814 2 9 144
1918078S21048 1918 23 SI MM NOT_NAMED 1918-03-19 12:00:00 TS -22.7544 49.7025 main 187 187 _________OP___ -1 -22.8000 49.7000 TC 35 -22.7202 49.7044 2 10 141
1918078S21048 1918 23 SI MM NOT_NAMED 1918-03-19 15:00:00 TS -23.1363 50.0502 main 235 235 _________PP___ -1 -23.1575 50.0501 TC 35 -23.1151 50.0503 2 10 139
1918078S21048 1918 23 SI MM NOT_NAMED 1918-03-19 18:00:00 TS -23.5000 50.4000 main 273 273 _________OO___ -1 -23.5000 50.4000 TC 35 -23.5000 50.4000 2 9 141
1918078S21048 1918 23 SI MM NOT_NAMED 1918-03-19 21:00:00 TS -23.8540 50.6928 main 310 310 _________PP___ -1 -23.8573 50.7002 TC 35 -23.8506 50.6855 2 9 142
1918078S21048 1918 23 SI MM NOT_NAMED 1918-03-20 00:00:00 TS -24.1930 50.9883 main 347 347 _________OP___ -1 -24.2000 51.0000 TC 35 -24.1860 50.9765 2 9 139
1918078S21048 1918 23 SI MM NOT_NAMED 1918-03-20 03:00:00 TS -24.5053 51.3086 main 385 385 _________PP___ -1 -24.5072 51.3129 TC 35 -24.5035 51.3043 2 9 133
1918078S21048 1918 23 SI MM NOT_NAMED 1918-03-20 06:00:00 TS -24.8000 51.7000 main 434 434 _________OO___ -1 -24.8000 51.7000 TC 35 -24.8000 51.7000 2 10 126
1918078S21048 1918 23 SI MM NOT_NAMED 1918-03-20 09:00:00 TS -25.0976 52.2098 main 490 490 _________PP___ -1 -25.1150 52.2124 TC 35 -25.0802 52.2072 2 11 120
1918078S21048 1918 23 SI MM NOT_NAMED 1918-03-20 12:00:00 TS -25.3691 52.7913 main 524 511 _________OP___ -1 -25.4000 52.8000 TC 35 -25.3382 52.7825 2 12 115
1918078S21048 1918 23 SI MM NOT_NAMED 1918-03-20 15:00:00 TS -25.5960 53.3960 main 518 514 _________PP___ -1 -25.6149 53.4003 TC 35 -25.5770 53.3916 2 12 112
1918078S21048 1918 23 SI MM NOT_NAMED 1918-03-20 18:00:00 TS -25.8000 54.0000 main 518 514 _________OO___ -1 -25.8000 54.0000 TC 35 -25.8000 54.0000 2 11 111
1918078S21048 1918 23 SI MM NOT_NAMED 1918-03-20 21:00:00 TS -26.0000 54.5402 main 526 522 _________PP___ -1 -25.9997 54.5577 TC 35 -26.0004 54.5226 2 10 112
1918078S21048 1918 23 SI MM NOT_NAMED 1918-03-21 00:00:00 TS -26.1949 55.0715 main 538 537 _________OP___ -1 -26.2000 55.1000 TC 35 -26.1898 55.0429 2 10 112
1918078S21048 1918 23 SI MM NOT_NAMED 1918-03-21 03:00:00 TS -26.3844 55.6061 main 558 558 _________PP___ -1 -26.3844 55.6206 TC 35 -26.3844 55.5916 2 11 112
1918078S21048 1918 23 SI MM NOT_NAMED 1918-03-21 06:00:00 TS -26.6000 56.2000 main 584 584 _________OO___ -1 -26.6000 56.2000 TC 35 -26.6000 56.2000 2 13 113
1918078S21048 1918 23 SI MM NOT_NAMED 1918-03-21 09:00:00 TS -26.8728 56.9033 main 628 628 _________PP___ -1 -26.8924 56.9124 TC 35 -26.8531 56.8943 2 14 113
1918078S21048 1918 23 SI MM NOT_NAMED 1918-03-21 12:00:00 TS -27.1634 57.6765 main 682 682 _________OP___ -1 -27.2000 57.7000 TC 35 -27.1268 57.6531 2 15 112
1918078S21048 1918 23 SI MM NOT_NAMED 1918-03-21 15:00:00 TS -27.4308 58.4730 main 731 731 _________PP___ -1 -27.4495 58.4857 TC 35 -27.4120 58.4604 2 15 110
1918078S21048 1918 23 SI MM NOT_NAMED 1918-03-21 18:00:00 TS -27.7000 59.3000 main 797 797 _________OO___ -1 -27.7000 59.3000 TC 35 -27.7000 59.3000 2 16 111
1918078S21048 1918 23 SI MM NOT_NAMED 1918-03-21 21:00:00 TS -27.9916 60.1465 main 865 865 _________PP___ -1 -27.9995 60.1351 TC 35 -27.9837 60.1579 2 16 111
1918078S21048 1918 23 SI MM NOT_NAMED 1918-03-22 00:00:00 TS -28.2808 61.0146 main 933 933 _________OP___ -1 -28.3000 61.0000 TC 35 -28.2616 61.0291 2 16 110
1918078S21048 1918 23 SI MM NOT_NAMED 1918-03-22 03:00:00 TS -28.5488 61.9014 main 989 989 _________PP___ -1 -28.5637 61.8919 TC 35 -28.5338 61.9109 2 17 108
1918078S21048 1918 23 SI MM NOT_NAMED 1918-03-22 06:00:00 TS -28.8000 62.8000 main 1060 _________OO___ -1 -28.8000 62.8000 TC 35 -28.8000 62.8000 2 17 108

IBTrACS Databaseについて

本データベースは、米国NOAAが公開する1842年以降の世界の熱帯低気圧のベストトラックデータアーカイブInternational Best Track Archive for Climate Stewardship (IBTrACS)を、ウェブで閲覧しやすい形式に変換したものです。

最終更新日:2021-10-08